Time;durP1;ratioP1;P1;durP2;ratioP2;P2;SDS_P1;SDS_P2;PMS_P1;PMS_P2;Temp;Humidity;BMP_temperature;BMP_pressure;BME280_temperature;BME280_humidity;BME280_pressure;Samples;Min_cycle;Max_cycle;Signal;HPM_P1;HPM_P2
2022/01/09 00:00:08;;;;;;;32.10;23.38;;;;;;;3.15;64.27;100739.47;5029582;28;20045;-58
2022/01/09 00:02:35;;;;;;;34.83;23.48;;;;;;;3.16;64.27;100743.75;5028939;28;20061;-59
2022/01/09 00:05:02;;;;;;;33.03;23.73;;;;;;;3.10;64.68;100747.38;5029725;28;20096;-58
2022/01/09 00:07:29;;;;;;;39.03;24.77;;;;;;;3.13;64.32;100749.03;5029724;28;20124;-59
2022/01/09 00:09:56;;;;;;;34.80;23.33;;;;;;;3.12;64.20;100740.41;5029086;28;20049;-57
2022/01/09 00:12:24;;;;;;;33.58;23.77;;;;;;;3.14;64.21;100733.44;5029141;28;20056;-58
2022/01/09 00:14:51;;;;;;;35.05;24.60;;;;;;;3.14;64.45;100727.41;5029348;28;20135;-58
2022/01/09 00:17:19;;;;;;;34.97;24.85;;;;;;;3.10;64.61;100717.09;5029296;28;20573;-58
2022/01/09 00:19:45;;;;;;;37.55;25.13;;;;;;;3.10;64.62;100705.91;5028253;28;20047;-58
2022/01/09 00:22:14;;;;;;;35.35;24.83;;;;;;;3.10;64.28;100693.78;5029302;28;20064;-59
2022/01/09 00:24:40;;;;;;;35.72;24.88;;;;;;;3.09;64.51;100699.84;5029029;28;20053;-60
2022/01/09 00:27:08;;;;;;;38.95;24.80;;;;;;;3.08;64.58;100689.53;5028949;28;20503;-65
2022/01/09 00:29:35;;;;;;;35.85;24.35;;;;;;;3.09;64.71;100691.22;5029333;28;20042;-60
2022/01/09 00:32:02;;;;;;;35.33;24.98;;;;;;;3.09;64.54;100678.28;5028999;28;20095;-60
2022/01/09 00:34:28;;;;;;;35.90;24.27;;;;;;;3.09;64.79;100676.50;5028863;28;20049;-60
2022/01/09 00:36:55;;;;;;;35.33;24.58;;;;;;;3.10;64.74;100667.84;5027681;28;20123;-60
2022/01/09 00:39:22;;;;;;;32.00;23.45;;;;;;;3.12;64.86;100662.63;5028588;28;20042;-61
2022/01/09 00:41:48;;;;;;;37.67;24.00;;;;;;;3.13;64.84;100647.94;5029180;28;20049;-60
2022/01/09 00:44:15;;;;;;;35.78;24.50;;;;;;;3.17;64.59;100641.75;5029001;28;20518;-60
2022/01/09 00:46:41;;;;;;;32.28;23.35;;;;;;;3.15;64.71;100631.44;5028960;28;20051;-60
2022/01/09 00:49:08;;;;;;;36.15;24.15;;;;;;;3.15;64.76;100634.03;5028908;28;20502;-59
2022/01/09 00:51:35;;;;;;;33.78;24.15;;;;;;;3.17;64.75;100628.78;5028982;28;20045;-59
2022/01/09 00:54:03;;;;;;;34.75;23.10;;;;;;;3.15;64.74;100622.78;5027326;28;20063;-60
2022/01/09 00:56:30;;;;;;;38.15;24.55;;;;;;;3.14;64.98;100629.72;5028580;28;20492;-60
2022/01/09 00:58:57;;;;;;;35.17;24.30;;;;;;;3.15;64.81;100625.38;5028577;28;20045;-60
2022/01/09 01:01:23;;;;;;;35.63;24.30;;;;;;;3.16;64.88;100621.91;5028171;28;20054;-63
2022/01/09 01:03:50;;;;;;;33.72;23.20;;;;;;;3.16;64.77;100627.09;5032118;28;20061;-60
2022/01/09 01:06:17;;;;;;;36.88;23.42;;;;;;;3.13;64.90;100627.19;5030792;28;20495;-60
2022/01/09 01:08:43;;;;;;;36.50;23.30;;;;;;;3.14;64.65;100634.91;5032065;28;20396;-60
2022/01/09 01:11:10;;;;;;;37.05;23.77;;;;;;;3.10;64.79;100641.09;5030835;28;20041;-60
2022/01/09 01:13:36;;;;;;;34.38;23.45;;;;;;;3.11;64.65;100634.97;5031953;28;20046;-59
2022/01/09 01:16:04;;;;;;;36.13;23.08;;;;;;;3.10;64.68;100634.16;5031763;28;20045;-59
2022/01/09 01:18:30;;;;;;;34.70;24.10;;;;;;;3.10;64.67;100613.41;5031742;28;20503;-60
2022/01/09 01:20:57;;;;;;;37.22;24.73;;;;;;;3.13;64.67;100606.44;5031966;28;20045;-61
2022/01/09 01:23:24;;;;;;;36.88;24.73;;;;;;;3.17;64.38;100592.50;5031692;28;20053;-61
2022/01/09 01:25:52;;;;;;;36.28;23.63;;;;;;;3.20;64.63;100575.13;5030785;28;20053;-61
2022/01/09 01:28:19;;;;;;;32.13;22.00;;;;;;;3.24;64.50;100563.75;5031650;28;20189;-60
2022/01/09 01:30:46;;;;;;;34.95;22.02;;;;;;;3.27;64.47;100565.41;5031791;28;20046;-60
2022/01/09 01:33:12;;;;;;;37.80;22.88;;;;;;;3.28;64.52;100551.56;5031681;28;20056;-59
2022/01/09 01:35:39;;;;;;;35.85;23.20;;;;;;;3.27;64.43;100555.88;5031286;28;20133;-60
2022/01/09 01:38:06;;;;;;;34.40;22.35;;;;;;;3.25;64.35;100554.22;5031567;28;20053;-60
2022/01/09 01:40:32;;;;;;;31.90;21.55;;;;;;;3.21;64.52;100566.44;5031730;28;20049;-60
2022/01/09 01:42:59;;;;;;;32.63;22.25;;;;;;;3.14;64.89;100570.09;5030647;28;20091;-60
2022/01/09 01:45:26;;;;;;;30.33;21.70;;;;;;;3.10;64.83;100558.97;5031465;28;20058;-60
2022/01/09 01:47:52;;;;;;;30.42;22.20;;;;;;;3.08;64.94;100546.94;5031598;28;20419;-60
2022/01/09 01:50:20;;;;;;;31.70;22.33;;;;;;;3.08;65.01;100539.16;5031188;28;20041;-60
2022/01/09 01:52:50;;;;;;;32.28;22.15;;;;;;;3.05;64.88;100526.31;5031632;28;20095;-60
2022/01/09 01:55:18;;;;;;;32.47;22.48;;;;;;;3.03;65.06;100530.66;5031498;28;20439;-60
2022/01/09 01:57:44;;;;;;;34.28;22.98;;;;;;;3.01;64.96;100527.25;5030373;28;20050;-60
2022/01/09 02:00:14;;;;;;;31.02;21.15;;;;;;;3.00;65.08;100531.59;5031513;28;20049;-59
2022/01/09 02:02:41;;;;;;;32.35;21.05;;;;;;;2.98;65.05;100524.78;5031485;28;20045;-60
2022/01/09 02:05:08;;;;;;;29.77;21.85;;;;;;;2.94;65.23;100524.84;5035024;28;20081;-60
2022/01/09 02:07:37;;;;;;;28.73;20.13;;;;;;;2.87;65.23;100532.84;5035150;28;20459;-60
2022/01/09 02:10:08;;;;;;;33.85;22.45;;;;;;;2.81;65.28;100535.63;5035091;28;20053;-60
2022/01/09 02:12:40;;;;;;;29.75;21.17;;;;;;;2.78;65.34;100536.53;5034913;28;20048;-60
2022/01/09 02:15:28;;;;;;;31.58;20.80;;;;;;;2.74;65.05;100517.66;5033836;28;20447;-60
2022/01/09 02:17:55;;;;;;;30.63;22.08;;;;;;;2.73;65.02;100509.91;5035048;28;20049;-61
2022/01/09 02:20:22;;;;;;;30.73;21.80;;;;;;;2.72;64.98;100501.28;5034564;28;20041;-60
2022/01/09 02:22:49;;;;;;;27.13;20.38;;;;;;;2.72;65.02;100492.69;5035096;28;20057;-60
2022/01/09 02:25:16;;;;;;;29.33;20.83;;;;;;;2.78;64.73;100480.38;5034548;28;20049;-60
2022/01/09 02:27:42;;;;;;;28.15;19.45;;;;;;;2.81;64.64;100476.03;5034849;28;20115;-60
2022/01/09 02:30:10;;;;;;;28.33;19.55;;;;;;;2.85;64.63;100459.50;5034489;28;20049;-60
2022/01/09 02:32:37;;;;;;;28.67;18.25;;;;;;;2.85;64.60;100451.72;5033632;28;20045;-60
2022/01/09 02:35:04;;;;;;;24.70;16.92;;;;;;;2.77;64.83;100449.34;5034105;28;20053;-59
2022/01/09 02:37:31;;;;;;;23.30;16.60;;;;;;;2.78;64.61;100433.75;5034603;28;20103;-60
2022/01/09 02:39:57;;;;;;;23.23;15.70;;;;;;;2.81;64.62;100419.84;5034729;28;20068;-60
2022/01/09 02:42:27;;;;;;;21.83;14.75;;;;;;;2.84;64.26;100416.31;5034464;28;20509;-60
2022/01/09 02:44:55;;;;;;;21.15;14.13;;;;;;;2.84;64.13;100395.59;5034344;28;20041;-60
2022/01/09 02:47:23;;;;;;;19.75;13.70;;;;;;;2.87;63.80;100385.13;5034256;28;20053;-68
2022/01/09 02:49:52;;;;;;;19.40;13.95;;;;;;;2.87;63.74;100386.00;5033099;28;20048;-60
2022/01/09 02:52:35;;;;;;;18.10;12.98;;;;;;;2.86;63.42;100368.75;5034225;28;20526;-60
2022/01/09 02:55:14;;;;;;;22.58;13.88;;;;;;;2.88;63.42;100368.69;5034280;28;20041;-60
2022/01/09 02:58:01;;;;;;;19.73;13.52;;;;;;;2.87;63.18;100377.34;5034269;28;20052;-59
2022/01/09 03:00:30;;;;;;;18.20;13.18;;;;;;;2.87;63.29;100369.56;5034085;28;20133;-60
2022/01/09 03:02:58;;;;;;;20.50;13.50;;;;;;;2.86;63.23;100360.97;5028566;28;20601;-60
2022/01/09 03:05:26;;;;;;;20.10;13.43;;;;;;;2.89;63.13;100360.03;5033894;28;20055;-60
2022/01/09 03:07:52;;;;;;;21.10;13.90;;;;;;;2.85;62.97;100358.44;5032887;28;20479;-61
2022/01/09 03:10:22;;;;;;;20.95;13.82;;;;;;;2.82;62.81;100346.41;5033777;28;20049;-60
2022/01/09 03:12:49;;;;;;;18.58;14.32;;;;;;;2.80;62.69;100332.66;5033885;28;20045;-59
2022/01/09 03:15:17;;;;;;;20.23;14.20;;;;;;;2.74;62.88;100317.28;5032460;28;20046;-60
2022/01/09 03:17:44;;;;;;;22.75;13.25;;;;;;;2.75;62.82;100322.41;5034134;28;20049;-60
2022/01/09 03:20:20;;;;;;;22.52;13.95;;;;;;;2.72;62.81;100317.34;5033793;28;20050;-60
2022/01/09 03:22:55;;;;;;;22.15;13.30;;;;;;;2.76;62.55;100313.75;5034162;28;20052;-69
2022/01/09 03:25:26;;;;;;;23.75;15.38;;;;;;;2.73;62.50;100306.09;5031560;28;20491;-59
2022/01/09 03:27:55;;;;;;;20.42;15.18;;;;;;;2.70;62.64;100298.38;5033716;28;20052;-60
2022/01/09 03:30:22;;;;;;;22.08;15.15;;;;;;;2.67;62.48;100293.31;5033362;28;20045;-59
2022/01/09 03:32:50;;;;;;;19.38;14.15;;;;;;;2.67;62.53;100285.56;5033620;28;20088;-60
2022/01/09 03:35:19;;;;;;;22.15;14.38;;;;;;;2.65;62.64;100269.19;5033244;28;20472;-60
2022/01/09 03:37:47;;;;;;;22.05;14.68;;;;;;;2.68;62.47;100276.03;5033434;28;20096;-60
2022/01/09 03:40:18;;;;;;;20.90;14.73;;;;;;;2.67;62.20;100272.59;5033326;28;20046;-60
2022/01/09 03:42:51;;;;;;;21.77;14.30;;;;;;;2.69;62.17;100267.34;5032430;28;20099;-60
2022/01/09 03:45:19;;;;;;;20.63;15.30;;;;;;;2.66;62.29;100265.72;5033499;28;20104;-59
2022/01/09 03:47:46;;;;;;;21.85;15.55;;;;;;;2.71;62.13;100273.34;5033278;28;20052;-60
2022/01/09 03:50:13;;;;;;;21.02;14.55;;;;;;;2.75;61.94;100269.75;5032968;28;20052;-59
2022/01/09 03:52:41;;;;;;;21.95;16.58;;;;;;;2.72;62.18;100275.06;5032979;28;20041;-61
2022/01/09 03:55:10;;;;;;;21.48;15.60;;;;;;;2.64;62.18;100272.72;5032976;28;20508;-60
2022/01/09 03:57:37;;;;;;;21.30;14.85;;;;;;;2.58;62.26;100259.94;5032866;28;20037;-60
2022/01/09 04:00:06;;;;;;;20.67;15.40;;;;;;;2.61;62.20;100252.91;5031910;28;20042;-60
2022/01/09 04:02:33;;;;;;;25.13;16.95;;;;;;;2.61;61.99;100246.88;5031019;28;20491;-60
2022/01/09 04:05:00;;;;;;;24.60;16.23;;;;;;;2.69;61.68;100251.81;5028904;28;20141;-60
2022/01/09 04:07:27;;;;;;;23.17;15.80;;;;;;;2.70;61.72;100259.53;5028984;28;20049;-59
2022/01/09 04:09:53;;;;;;;19.80;15.57;;;;;;;2.72;61.62;100257.75;5029572;28;20470;-59
2022/01/09 04:12:32;;;;;;;23.35;16.17;;;;;;;2.69;61.74;100270.81;5029314;28;20500;-60
2022/01/09 04:15:02;;;;;;;21.75;15.63;;;;;;;2.64;61.67;100267.53;5026295;28;20049;-61
2022/01/09 04:17:40;;;;;;;21.92;15.65;;;;;;;2.64;61.62;100264.94;5029595;28;20474;-61
2022/01/09 04:20:08;;;;;;;22.10;15.15;;;;;;;2.63;61.72;100260.66;5029423;28;20065;-59
2022/01/09 04:22:35;;;;;;;21.58;15.68;;;;;;;2.60;61.91;100253.81;5029276;28;20057;-60
2022/01/09 04:25:02;;;;;;;23.45;15.27;;;;;;;2.63;61.59;100249.41;5029476;28;20107;-60
2022/01/09 04:27:29;;;;;;;20.38;15.00;;;;;;;2.71;61.45;100237.09;5029635;28;20441;-59
2022/01/09 04:29:55;;;;;;;20.42;14.57;;;;;;;2.74;61.54;100230.06;5029124;28;20045;-59
2022/01/09 04:32:22;;;;;;;21.63;14.23;;;;;;;2.80;61.10;100229.00;5028081;28;20048;-59
2022/01/09 04:34:50;;;;;;;19.67;13.77;;;;;;;2.77;61.15;100231.69;5028977;28;20389;-60
2022/01/09 04:37:17;;;;;;;17.55;12.30;;;;;;;2.85;60.65;100228.88;5028974;28;20080;-60
2022/01/09 04:39:47;;;;;;;19.48;11.88;;;;;;;2.88;60.49;100233.94;5028952;28;20052;-67
2022/01/09 04:42:14;;;;;;;17.75;12.32;;;;;;;2.92;60.34;100235.50;5028972;28;20046;-60
2022/01/09 04:44:40;;;;;;;19.80;11.80;;;;;;;2.92;59.94;100235.50;5029253;28;20061;-59
2022/01/09 04:47:12;;;;;;;18.35;12.52;;;;;;;2.90;60.04;100243.34;5027360;28;20053;-59
2022/01/09 04:49:42;;;;;;;18.25;12.77;;;;;;;2.90;59.79;100247.69;5028799;28;20565;-60
2022/01/09 04:52:14;;;;;;;17.15;11.95;;;;;;;2.88;59.77;100245.16;5028796;28;20072;-60
2022/01/09 04:54:40;;;;;;;20.15;12.27;;;;;;;2.87;59.92;100248.63;5028972;28;20089;-60
2022/01/09 04:57:08;;;;;;;16.92;12.57;;;;;;;2.90;59.49;100255.47;5028490;28;20042;-58
2022/01/09 04:59:34;;;;;;;17.05;11.98;;;;;;;2.94;59.22;100255.28;5028839;28;20419;-58
2022/01/09 05:02:01;;;;;;;18.95;12.30;;;;;;;2.97;59.02;100253.50;5027696;28;20049;-58
2022/01/09 05:04:28;;;;;;;17.77;12.15;;;;;;;2.96;59.19;100254.41;5028632;28;20041;-58
2022/01/09 05:06:55;;;;;;;19.77;11.93;;;;;;;2.94;59.18;100250.13;5028803;28;20045;-58
2022/01/09 05:09:21;;;;;;;17.23;12.25;;;;;;;2.95;59.14;100243.19;5028268;28;20053;-58
2022/01/09 05:11:48;;;;;;;18.83;12.45;;;;;;;2.94;59.22;100241.50;5028697;28;20045;-58
2022/01/09 05:14:15;;;;;;;16.20;11.05;;;;;;;2.96;59.32;100242.31;5028349;28;20049;-58
2022/01/09 05:16:44;;;;;;;19.55;12.57;;;;;;;2.95;59.37;100232.84;5028428;28;20100;-58
2022/01/09 05:19:18;;;;;;;17.05;12.38;;;;;;;2.95;59.52;100240.63;5027685;28;20068;-58
2022/01/09 05:21:46;;;;;;;20.40;14.02;;;;;;;2.78;60.32;100247.19;5028418;28;20042;-58
2022/01/09 05:24:13;;;;;;;19.08;13.50;;;;;;;2.70;61.00;100246.56;5028447;28;20408;-58
2022/01/09 05:26:40;;;;;;;19.05;14.00;;;;;;;2.75;60.91;100244.69;5028467;28;20450;-58
2022/01/09 05:29:07;;;;;;;20.60;14.07;;;;;;;2.75;60.74;100239.50;5028423;28;20403;-58
2022/01/09 05:31:33;;;;;;;18.83;13.07;;;;;;;2.82;60.81;100254.84;5028218;28;20491;-57
2022/01/09 05:34:00;;;;;;;18.48;13.60;;;;;;;2.75;61.24;100257.63;5028574;28;20092;-58
2022/01/09 05:36:27;;;;;;;18.95;13.82;;;;;;;2.80;61.00;100264.44;5026796;28;20045;-57
2022/01/09 05:38:54;;;;;;;21.20;13.82;;;;;;;2.65;61.55;100268.34;5030179;28;20052;-58
2022/01/09 05:41:21;;;;;;;20.63;14.68;;;;;;;2.69;61.53;100263.03;5032250;28;20061;-58
2022/01/09 05:43:48;;;;;;;19.23;13.98;;;;;;;2.76;61.49;100258.50;5032137;28;20045;-58
2022/01/09 05:46:15;;;;;;;24.10;14.40;;;;;;;2.79;61.47;100253.22;5032106;28;20593;-58
2022/01/09 05:48:42;;;;;;;21.08;13.88;;;;;;;2.83;61.23;100248.78;5032093;28;20045;-58
2022/01/09 05:51:08;;;;;;;18.48;13.55;;;;;;;2.85;61.26;100245.25;5031892;28;20041;-58
2022/01/09 05:53:35;;;;;;;20.00;13.80;;;;;;;2.87;61.04;100259.00;5031057;28;20099;-64
2022/01/09 05:56:02;;;;;;;21.02;14.00;;;;;;;2.90;61.52;100263.25;5031881;28;20049;-58
2022/01/09 05:58:29;;;;;;;19.08;12.55;;;;;;;2.91;61.45;100257.16;5032496;28;20099;-58
2022/01/09 06:00:55;;;;;;;17.80;13.05;;;;;;;2.91;61.63;100260.59;5031825;28;20495;-58
2022/01/09 06:03:22;;;;;;;24.50;13.85;;;;;;;2.92;61.45;100262.28;5031902;28;20080;-58
2022/01/09 06:05:49;;;;;;;16.65;12.85;;;;;;;2.94;61.64;100267.41;5031950;28;20045;-58
2022/01/09 06:08:16;;;;;;;21.17;13.60;;;;;;;2.94;61.47;100275.19;5031582;28;20470;-58
2022/01/09 06:10:42;;;;;;;18.02;13.18;;;;;;;2.96;61.62;100281.19;5030577;28;20046;-58
2022/01/09 06:13:09;;;;;;;20.73;13.05;;;;;;;2.97;61.75;100269.94;5031498;28;20459;-58
2022/01/09 06:15:36;;;;;;;18.90;13.50;;;;;;;2.99;61.51;100267.28;5031715;28;20482;-58
2022/01/09 06:18:03;;;;;;;18.60;12.25;;;;;;;2.94;61.80;100270.84;5031672;28;20049;-58
2022/01/09 06:20:29;;;;;;;18.75;12.95;;;;;;;2.94;62.03;100278.63;5031789;28;20403;-58
2022/01/09 06:22:56;;;;;;;19.00;13.45;;;;;;;2.98;61.98;100281.97;5031735;28;20419;-58
2022/01/09 06:25:23;;;;;;;19.45;12.82;;;;;;;2.97;62.16;100277.69;5031564;28;20056;-58
2022/01/09 06:27:50;;;;;;;16.65;12.40;;;;;;;2.99;61.99;100285.44;5030607;28;20091;-58
2022/01/09 06:30:16;;;;;;;19.35;13.70;;;;;;;3.01;62.21;100292.25;5031147;28;20037;-58
2022/01/09 06:32:43;;;;;;;19.00;12.57;;;;;;;3.00;62.27;100289.72;5031173;28;20454;-60
2022/01/09 06:35:10;;;;;;;16.60;13.23;;;;;;;3.01;62.35;100293.97;5031049;28;20497;-58
2022/01/09 06:37:37;;;;;;;19.35;12.88;;;;;;;2.99;62.35;100288.00;5031492;28;20052;-58
2022/01/09 06:40:05;;;;;;;16.20;12.63;;;;;;;3.01;62.72;100291.38;5031097;28;20049;-57
2022/01/09 06:42:32;;;;;;;17.38;12.75;;;;;;;3.01;62.55;100289.66;5031275;28;20053;-58
2022/01/09 06:44:58;;;;;;;20.45;14.65;;;;;;;2.98;62.78;100297.50;5031241;28;20045;-59
2022/01/09 06:47:25;;;;;;;22.08;14.15;;;;;;;2.99;62.65;100286.25;5030073;28;20049;-58
2022/01/09 06:49:52;;;;;;;19.48;13.88;;;;;;;3.02;62.79;100285.31;5030694;28;20080;-58
2022/01/09 06:52:18;;;;;;;20.77;12.82;;;;;;;3.04;62.79;100276.59;5030792;28;20103;-57
2022/01/09 06:54:45;;;;;;;19.63;13.07;;;;;;;3.04;62.68;100271.41;5030914;28;20045;-58
2022/01/09 06:57:12;;;;;;;19.77;13.82;;;;;;;3.05;62.78;100270.50;5030793;28;20049;-58
2022/01/09 06:59:38;;;;;;;20.30;13.70;;;;;;;3.05;62.53;100254.13;5030971;28;20051;-58
2022/01/09 07:02:05;;;;;;;23.90;14.85;;;;;;;3.05;62.65;100238.56;5030748;28;20061;-58
2022/01/09 07:04:32;;;;;;;21.00;14.75;;;;;;;3.10;62.30;100227.13;5029662;28;20049;-58
2022/01/09 07:06:59;;;;;;;18.48;13.60;;;;;;;3.06;62.58;100215.19;5030615;28;20442;-57
2022/01/09 07:09:26;;;;;;;21.48;14.10;;;;;;;3.07;62.40;100211.69;5030246;28;20406;-57
2022/01/09 07:11:52;;;;;;;20.88;13.93;;;;;;;3.03;62.11;100202.31;5030633;28;20045;-58
2022/01/09 07:14:19;;;;;;;20.67;14.75;;;;;;;3.04;62.16;100208.34;5030397;28;20055;-58
2022/01/09 07:16:46;;;;;;;20.33;13.88;;;;;;;3.07;62.15;100214.28;5030583;28;20045;-58
2022/01/09 07:19:12;;;;;;;18.63;13.93;;;;;;;3.06;62.22;100212.59;5030784;28;20049;-58
2022/01/09 07:21:39;;;;;;;24.48;15.38;;;;;;;3.05;62.26;100221.25;5029483;28;20060;-58
2022/01/09 07:24:06;;;;;;;23.55;14.88;;;;;;;3.08;62.37;100215.97;5030350;28;20049;-58
2022/01/09 07:26:32;;;;;;;20.45;13.80;;;;;;;3.08;62.39;100213.38;5030376;28;20041;-58
2022/01/09 07:28:59;;;;;;;20.63;13.82;;;;;;;3.08;62.60;100222.91;5030617;28;20046;-58
2022/01/09 07:31:25;;;;;;;21.25;14.65;;;;;;;3.10;62.50;100215.94;5030216;28;20068;-58
2022/01/09 07:33:52;;;;;;;20.15;13.80;;;;;;;3.10;62.68;100208.16;5030359;28;20041;-58
2022/01/09 07:36:19;;;;;;;23.73;15.07;;;;;;;3.09;62.79;100217.66;5029942;28;20049;-58
2022/01/09 07:38:46;;;;;;;20.83;14.70;;;;;;;3.13;62.69;100207.19;5028966;28;20115;-58
2022/01/09 07:41:14;;;;;;;22.83;14.65;;;;;;;3.15;62.50;100215.75;5030021;28;20123;-58
2022/01/09 07:43:41;;;;;;;21.15;14.13;;;;;;;3.17;62.80;100213.97;5029901;28;20053;-58
2022/01/09 07:46:09;;;;;;;27.13;15.75;;;;;;;3.17;62.79;100209.63;5030076;28;20511;-58
2022/01/09 07:48:36;;;;;;;25.00;14.55;;;;;;;3.18;62.74;100220.84;5030176;28;20049;-58
2022/01/09 07:51:03;;;;;;;20.98;13.82;;;;;;;3.19;62.84;100232.91;5029945;28;20426;-58
2022/01/09 07:53:29;;;;;;;22.88;14.82;;;;;;;3.17;62.74;100227.75;5030374;28;20057;-59
2022/01/09 07:56:00;;;;;;;20.55;14.27;;;;;;;3.20;63.03;100227.66;5028866;28;20053;-58
2022/01/09 07:58:27;;;;;;;23.38;14.15;;;;;;;3.22;62.81;100218.06;5029834;28;20049;-65
2022/01/09 08:00:53;;;;;;;19.45;14.07;;;;;;;3.23;62.85;100213.75;5029010;28;20050;-63
2022/01/09 08:03:20;;;;;;;23.30;14.13;;;;;;;3.22;62.90;100220.66;5029577;28;20049;-58
2022/01/09 08:05:47;;;;;;;23.55;13.80;;;;;;;3.25;62.88;100211.94;5029549;28;20541;-58
2022/01/09 08:08:14;;;;;;;38.58;23.63;;;;;;;3.27;62.93;100212.75;5029704;28;20053;-58
2022/01/09 08:10:40;;;;;;;33.95;22.45;;;;;;;3.26;63.08;100208.44;5029673;28;20045;-59
2022/01/09 08:13:07;;;;;;;25.90;15.55;;;;;;;3.30;62.84;100204.88;5026424;28;20046;-61
2022/01/09 08:15:34;;;;;;;23.85;14.70;;;;;;;3.32;62.97;100197.03;5029213;28;20057;-58
2022/01/09 08:18:00;;;;;;;23.77;13.73;;;;;;;3.33;63.04;100194.38;5029782;28;20518;-58
2022/01/09 08:20:27;;;;;;;22.08;14.10;;;;;;;3.29;62.94;100192.81;5029335;28;20561;-58
2022/01/09 08:22:54;;;;;;;22.13;14.82;;;;;;;3.30;62.81;100185.84;5029614;28;20095;-58
2022/01/09 08:25:21;;;;;;;24.70;16.15;;;;;;;3.34;62.52;100193.47;5028999;28;20053;-59
2022/01/09 08:27:48;;;;;;;63.05;42.17;;;;;;;3.34;62.50;100198.66;5028428;28;20064;-58
2022/01/09 08:30:16;;;;;;;31.08;22.10;;;;;;;3.31;62.81;100211.72;5028932;28;20049;-59
2022/01/09 08:32:42;;;;;;;26.67;17.85;;;;;;;3.32;62.84;100197.88;5029131;28;20050;-58
2022/01/09 08:35:09;;;;;;;26.27;19.10;;;;;;;3.28;62.76;100211.84;5028683;28;20056;-58
2022/01/09 08:37:36;;;;;;;28.02;17.25;;;;;;;3.27;63.07;100216.16;5029144;28;20050;-58
2022/01/09 08:40:04;;;;;;;46.88;28.15;;;;;;;3.25;63.15;100215.41;5029016;28;20053;-58
2022/01/09 08:42:30;;;;;;;36.75;22.70;;;;;;;3.25;63.21;100222.31;5029589;28;20465;-59
2022/01/09 08:44:57;;;;;;;33.05;22.60;;;;;;;3.24;63.34;100228.41;5028230;28;20868;-58
2022/01/09 08:47:24;;;;;;;23.70;17.55;;;;;;;3.31;63.04;100236.81;5028703;28;20061;-59
2022/01/09 08:49:50;;;;;;;23.65;16.98;;;;;;;3.31;63.20;100248.03;5028657;28;20056;-62
2022/01/09 08:52:17;;;;;;;24.27;17.13;;;;;;;3.39;62.85;100258.13;5028553;28;20050;-59
2022/01/09 08:54:44;;;;;;;22.55;14.85;;;;;;;3.44;62.77;100264.00;5028975;28;20495;-60
2022/01/09 08:57:11;;;;;;;20.63;14.75;;;;;;;3.52;62.29;100263.78;5028694;28;20053;-58
2022/01/09 08:59:38;;;;;;;118.47;43.53;;;;;;;3.50;62.35;100268.97;5028844;28;20045;-59
2022/01/09 09:02:04;;;;;;;235.57;140.15;;;;;;;3.51;62.51;100269.84;5028185;28;20053;-58
2022/01/09 09:04:31;;;;;;;64.45;37.95;;;;;;;3.59;62.61;100275.59;5028603;28;20064;-59
2022/01/09 09:06:58;;;;;;;41.42;26.77;;;;;;;3.64;62.21;100278.88;5028649;28;20060;-58
2022/01/09 09:09:24;;;;;;;37.67;23.30;;;;;;;3.67;62.29;100273.59;5028416;28;20057;-59
2022/01/09 09:11:51;;;;;;;36.53;23.13;;;;;;;3.70;62.39;100281.25;5028522;28;20049;-59
2022/01/09 09:14:22;;;;;;;27.85;16.30;;;;;;;3.75;62.27;100266.38;5028345;28;20053;-59
2022/01/09 09:16:49;;;;;;;33.53;20.70;;;;;;;3.74;62.28;100258.66;5027558;28;20071;-59
2022/01/09 09:19:15;;;;;;;25.83;17.38;;;;;;;3.80;62.23;100262.78;5028424;28;20049;-59
2022/01/09 09:21:43;;;;;;;23.33;16.98;;;;;;;3.81;62.02;100265.31;5028620;28;20136;-59
2022/01/09 09:24:10;;;;;;;32.95;23.58;;;;;;;3.76;62.49;100260.28;5028481;28;20051;-58
2022/01/09 09:26:36;;;;;;;36.42;25.00;;;;;;;3.84;62.25;100265.19;5028333;28;20096;-58
2022/01/09 09:29:05;;;;;;;39.22;24.98;;;;;;;3.80;62.75;100258.44;5028425;28;20056;-59
2022/01/09 09:31:32;;;;;;;90.93;49.70;;;;;;;3.79;62.46;100256.72;5028566;28;20049;-60
2022/01/09 09:33:59;;;;;;;58.75;36.67;;;;;;;3.77;62.93;100266.31;5027483;28;20041;-60
2022/01/09 09:36:26;;;;;;;34.10;23.00;;;;;;;3.80;62.82;100261.03;5030593;28;20053;-61
2022/01/09 09:38:53;;;;;;;27.17;19.33;;;;;;;3.76;62.90;100264.63;5028014;28;20109;-61
2022/01/09 09:41:26;;;;;;;33.85;21.27;;;;;;;3.76;63.05;100262.88;5030528;28;20104;-60
2022/01/09 09:43:53;;;;;;;56.65;29.65;;;;;;;3.75;63.23;100260.34;5027957;28;20041;-61
2022/01/09 09:46:24;;;;;;;59.67;34.85;;;;;;;3.71;63.48;100258.78;5030477;28;20208;-60
2022/01/09 09:48:54;;;;;;;37.92;25.00;;;;;;;3.65;63.71;100270.19;5032332;28;20092;-60
2022/01/09 09:51:25;;;;;;;38.13;25.23;;;;;;;3.67;63.89;100271.00;5030288;28;20106;-60
2022/01/09 09:53:52;;;;;;;71.63;41.72;;;;;;;3.65;64.06;100271.97;5031865;28;20041;-60
2022/01/09 09:56:19;;;;;;;71.88;38.95;;;;;;;3.63;64.13;100258.19;5028961;28;20050;-61
2022/01/09 09:58:49;;;;;;;90.05;50.15;;;;;;;3.58;64.78;100271.31;5028166;28;20050;-61
2022/01/09 10:01:33;;;;;;;45.92;28.33;;;;;;;4.04;64.21;100266.22;5027885;28;20041;-59
2022/01/09 10:04:01;;;;;;;49.40;31.63;;;;;;;3.93;64.41;100269.19;5028138;28;20436;-71
2022/01/09 10:06:38;;;;;;;47.97;29.02;;;;;;;3.95;64.21;100272.59;5026523;28;20049;-76
2022/01/09 10:11:10;;;;;;;54.67;35.55;;;;;;;3.83;64.75;100278.22;5053842;28;20391;-62
2022/01/09 10:13:37;;;;;;;51.33;33.60;;;;;;;3.59;65.66;100288.56;5045987;28;20056;-61
2022/01/09 10:16:04;;;;;;;38.72;27.98;;;;;;;3.69;65.72;100292.53;5045936;28;20481;-63
2022/01/09 10:18:38;;;;;;;38.83;27.60;;;;;;;3.66;65.60;100276.25;5045144;28;20057;-62
2022/01/09 10:21:17;;;;;;;54.58;33.55;;;;;;;3.54;66.21;100268.00;5045596;28;20049;-62
2022/01/09 10:24:00;;;;;;;92.90;46.65;;;;;;;3.53;66.30;100274.09;5038567;28;20072;-62
2022/01/09 10:26:29;;;;;;;78.57;43.88;;;;;;;3.47;66.47;100273.47;5036880;28;20099;-62
2022/01/09 10:28:56;;;;;;;128.00;62.25;;;;;;;3.38;66.78;100275.44;5035507;28;20058;-62
2022/01/09 10:31:23;;;;;;;113.43;58.00;;;;;;;3.42;66.78;100276.19;5027879;28;20095;-62
2022/01/09 10:33:57;;;;;;;59.95;43.97;;;;;;;3.45;66.61;100275.25;5040274;28;20056;-61
2022/01/09 10:36:39;;;;;;;59.83;37.55;;;;;;;3.46;66.83;100271.75;5041380;28;20142;-62
2022/01/09 10:39:17;;;;;;;67.45;47.50;;;;;;;3.52;66.74;100280.16;5045083;28;20106;-62
2022/01/09 10:41:44;;;;;;;75.75;47.47;;;;;;;3.51;66.85;100278.47;5044541;28;20551;-62
2022/01/09 10:44:16;;;;;;;67.53;45.80;;;;;;;3.57;66.99;100287.81;5045090;28;20052;-62
2022/01/09 10:46:53;;;;;;;65.50;41.05;;;;;;;3.57;66.94;100287.81;5045465;28;20060;-66
2022/01/09 10:49:20;;;;;;;90.85;51.60;;;;;;;3.57;67.08;100285.22;5031339;28;20481;-63
2022/01/09 10:51:47;;;;;;;114.68;61.78;;;;;;;3.54;67.17;100272.31;5042145;28;20042;-62
2022/01/09 10:54:31;;;;;;;107.78;59.70;;;;;;;3.55;67.11;100287.00;5044860;28;20047;-63
2022/01/09 10:57:12;;;;;;;73.00;46.03;;;;;;;3.63;67.11;100282.41;5044825;28;20045;-62
2022/01/09 10:59:39;;;;;;;44.40;33.35;;;;;;;3.58;67.10;100285.16;5045346;28;20088;-61
2022/01/09 11:02:07;;;;;;;66.35;44.25;;;;;;;3.58;67.06;100279.94;5044866;28;20484;-62
2022/01/09 11:04:34;;;;;;;59.75;42.00;;;;;;;3.55;67.29;100289.59;5044920;28;20091;-62
2022/01/09 11:07:01;;;;;;;73.70;48.70;;;;;;;3.57;67.34;100285.22;5044558;28;20132;-61
2022/01/09 11:09:29;;;;;;;47.78;32.15;;;;;;;3.60;67.15;100291.09;5044167;28;20053;-62
2022/01/09 11:11:56;;;;;;;96.55;59.40;;;;;;;3.59;67.25;100289.44;5044910;28;20045;-62
2022/01/09 11:14:24;;;;;;;77.50;49.80;;;;;;;3.60;67.56;100292.88;5044216;28;20091;-62
2022/01/09 11:16:51;;;;;;;69.25;44.55;;;;;;;3.58;67.36;100298.13;5044692;28;20440;-62
2022/01/09 11:19:23;;;;;;;85.20;57.15;;;;;;;3.61;67.66;100286.78;5044380;28;20084;-61
2022/01/09 11:21:55;;;;;;;112.90;68.00;;;;;;;3.67;67.41;100288.31;5033325;28;20528;-61